Time;durP1;ratioP1;P1;durP2;ratioP2;P2;SDS_P1;SDS_P2;PMS_P1;PMS_P2;Temp;Humidity;BMP_temperature;BMP_pressure;BME280_temperature;BME280_humidity;BME280_pressure;Samples;Min_cycle;Max_cycle;Signal;HPM_P1;HPM_P2
2022/02/12 00:00:14;;;;;;;20.70;7.88;;;1.40;93.60;;;;;;4965718;28;20674;-71
2022/02/12 00:02:40;;;;;;;16.98;8.68;;;1.30;93.60;;;;;;4960380;28;20673;-73
2022/02/12 00:05:07;;;;;;;15.93;7.68;;;1.30;93.80;;;;;;4964710;28;20191;-74
2022/02/12 00:07:33;;;;;;;19.58;8.63;;;1.30;93.90;;;;;;4965959;28;20217;-73
2022/02/12 00:09:59;;;;;;;20.23;8.15;;;1.20;93.80;;;;;;4963175;28;20218;-75
2022/02/12 00:12:25;;;;;;;14.40;7.40;;;1.20;93.80;;;;;;4965206;28;20215;-73
2022/02/12 00:14:51;;;;;;;14.60;7.30;;;1.10;93.80;;;;;;4961402;28;20429;-73
2022/02/12 00:17:17;;;;;;;22.77;11.40;;;1.10;93.90;;;;;;4963746;28;20427;-71
2022/02/12 00:19:43;;;;;;;16.30;9.50;;;1.00;93.90;;;;;;4975550;28;20442;-70
2022/02/12 00:22:08;;;;;;;21.37;10.60;;;1.00;94.20;;;;;;4969578;28;20183;-72
2022/02/12 00:24:34;;;;;;;24.83;10.13;;;1.00;94.40;;;;;;4966162;28;20821;-72
2022/02/12 00:27:00;;;;;;;18.07;8.93;;;1.00;94.50;;;;;;4961592;28;20187;-71
2022/02/12 00:29:26;;;;;;;35.20;10.87;;;1.00;94.70;;;;;;4964114;28;20262;-72
2022/02/12 00:31:51;;;;;;;19.00;9.67;;;1.00;94.70;;;;;;4960685;28;20203;-71
2022/02/12 00:34:17;;;;;;;17.20;8.60;;;1.00;94.60;;;;;;4973577;28;20206;-71
2022/02/12 00:36:43;;;;;;;21.57;9.83;;;0.90;94.50;;;;;;4973532;28;20190;-72
2022/02/12 00:39:13;;;;;;;17.07;9.40;;;0.80;94.50;;;;;;4977330;28;20230;-72
2022/02/12 00:41:39;;;;;;;16.98;9.25;;;0.80;94.60;;;;;;4971914;28;20237;-71
2022/02/12 00:44:05;;;;;;;19.33;9.98;;;0.80;94.70;;;;;;4966255;28;20206;-70
2022/02/12 00:46:31;;;;;;;19.50;9.20;;;0.80;94.70;;;;;;4971191;28;20188;-72
2022/02/12 00:48:57;;;;;;;16.60;7.70;;;0.70;94.70;;;;;;4970699;28;20191;-70
2022/02/12 00:51:23;;;;;;;17.55;8.35;;;0.80;94.80;;;;;;4980152;28;20474;-72
2022/02/12 00:53:48;;;;;;;19.00;9.90;;;0.70;94.80;;;;;;4971485;28;20715;-71
2022/02/12 00:56:14;;;;;;;19.47;10.20;;;0.70;94.90;;;;;;4966769;28;20647;-71
2022/02/12 00:58:40;;;;;;;22.07;12.07;;;0.70;95.00;;;;;;4969611;28;20593;-71
2022/02/12 01:01:06;;;;;;;27.30;12.30;;;0.70;95.10;;;;;;4967005;28;20537;-71
2022/02/12 01:03:32;;;;;;;23.50;11.27;;;0.70;95.10;;;;;;4970965;28;20187;-72
2022/02/12 01:05:57;;;;;;;28.47;12.60;;;0.70;95.10;;;;;;4961389;28;20196;-71
2022/02/12 01:08:24;;;;;;;22.83;12.60;;;0.60;95.10;;;;;;4964088;28;20429;-72
2022/02/12 01:10:49;;;;;;;27.92;13.38;;;0.60;95.20;;;;;;4969460;28;20450;-70
2022/02/12 01:13:15;;;;;;;44.23;16.17;;;0.50;95.30;;;;;;4967066;28;20190;-70
2022/02/12 01:15:41;;;;;;;35.30;15.27;;;0.50;95.40;;;;;;4962916;28;20262;-70
2022/02/12 01:18:07;;;;;;;42.47;16.07;;;0.50;95.60;;;;;;4970715;28;20485;-72
2022/02/12 01:20:34;;;;;;;33.33;15.17;;;0.40;95.80;;;;;;4969772;28;20211;-70
2022/02/12 01:23:01;;;;;;;41.33;16.90;;;0.40;95.90;;;;;;4963567;28;20469;-69
2022/02/12 01:25:27;;;;;;;36.63;18.38;;;0.40;96.20;;;;;;4966536;28;20196;-68
2022/02/12 01:27:53;;;;;;;40.00;18.58;;;0.30;96.30;;;;;;4971410;28;20629;-69
2022/02/12 01:30:19;;;;;;;37.07;17.20;;;0.30;96.50;;;;;;4966324;28;20211;-69
2022/02/12 01:32:45;;;;;;;32.87;16.13;;;0.30;96.70;;;;;;4969072;28;20557;-71
2022/02/12 01:35:12;;;;;;;41.87;19.30;;;0.20;96.80;;;;;;4967646;28;20537;-71
2022/02/12 01:37:39;;;;;;;42.63;19.27;;;0.20;96.90;;;;;;4974794;28;20426;-70
2022/02/12 01:40:06;;;;;;;39.53;16.77;;;0.20;97.10;;;;;;4979874;28;20207;-71
2022/02/12 01:42:32;;;;;;;42.85;18.42;;;0.10;97.20;;;;;;4979286;28;20183;-70
2022/02/12 01:45:01;;;;;;;37.90;16.40;;;0.10;97.30;;;;;;4961829;28;20626;-72
2022/02/12 01:47:27;;;;;;;32.40;15.18;;;0.10;97.40;;;;;;4965053;28;20449;-72
2022/02/12 01:49:53;;;;;;;43.28;18.70;;;0.10;97.60;;;;;;4962358;28;20757;-70
2022/02/12 01:52:21;;;;;;;45.78;20.80;;;0.10;97.60;;;;;;4972585;28;20694;-71
2022/02/12 01:54:47;;;;;;;39.30;16.35;;;0.10;97.60;;;;;;4965847;28;20760;-71
2022/02/12 01:57:14;;;;;;;39.43;18.00;;;0.10;97.60;;;;;;4972217;28;20279;-69
2022/02/12 01:59:42;;;;;;;36.40;18.45;;;0.10;97.70;;;;;;4972132;28;20434;-71
2022/02/12 02:02:09;;;;;;;39.35;18.33;;;0.10;97.80;;;;;;4973253;28;20206;-71
2022/02/12 02:04:38;;;;;;;37.42;18.10;;;0.00;97.80;;;;;;4971620;28;20192;-71
2022/02/12 02:07:04;;;;;;;47.03;17.77;;;0.00;97.90;;;;;;4973710;28;20729;-70
2022/02/12 02:09:30;;;;;;;43.35;19.92;;;0.00;97.90;;;;;;4980037;28;20704;-70
2022/02/12 02:11:56;;;;;;;37.03;17.27;;;0.00;98.00;;;;;;4972299;28;20701;-72
2022/02/12 02:14:40;;;;;;;40.90;16.40;;;0.00;98.00;;;;;;4971555;28;20194;-71
2022/02/12 02:17:10;;;;;;;42.08;18.05;;;0.00;97.90;;;;;;4965123;28;20954;-70
2022/02/12 02:19:36;;;;;;;36.45;17.80;;;-0.10;97.90;;;;;;4974378;28;20258;-71
2022/02/12 02:22:03;;;;;;;44.13;19.25;;;-0.10;97.90;;;;;;4978902;28;20182;-70
2022/02/12 02:24:29;;;;;;;43.28;18.20;;;-0.10;98.00;;;;;;4977224;28;20971;-71
2022/02/12 02:27:08;;;;;;;37.20;17.88;;;0.00;98.00;;;;;;4968865;28;20302;-72
2022/02/12 02:29:36;;;;;;;37.78;15.80;;;0.00;98.00;;;;;;4970405;28;20179;-71
2022/02/12 02:32:02;;;;;;;34.50;15.38;;;-0.10;98.00;;;;;;4973048;28;20610;-70
2022/02/12 02:34:28;;;;;;;28.35;13.93;;;-0.10;98.00;;;;;;4967078;28;20188;-69
2022/02/12 02:36:54;;;;;;;33.67;14.97;;;-0.10;98.00;;;;;;4971848;28;20203;-72
2022/02/12 02:39:20;;;;;;;34.20;16.10;;;0.00;98.00;;;;;;4972671;28;20199;-72
2022/02/12 02:41:46;;;;;;;34.97;14.38;;;-0.10;97.90;;;;;;4973902;28;20468;-72
2022/02/12 02:44:12;;;;;;;28.23;13.47;;;-0.10;97.90;;;;;;4973864;28;20730;-71
2022/02/12 02:46:37;;;;;;;24.53;12.77;;;-0.10;97.80;;;;;;4969553;28;20222;-71
2022/02/12 02:49:03;;;;;;;26.27;12.43;;;-0.10;97.70;;;;;;4967987;28;20538;-70
2022/02/12 02:56:57;;;;;;;27.20;12.77;;;-0.20;97.50;;;;;;4973746;28;20234;-71
2022/02/12 02:59:23;;;;;;;32.30;14.57;;;-0.20;97.40;;;;;;4973518;28;20199;-72
2022/02/12 03:01:52;;;;;;;30.70;12.47;;;-0.20;97.50;;;;;;4964038;28;20233;-72
2022/02/12 03:04:22;;;;;;;28.73;12.63;;;-0.20;97.50;;;;;;4969963;28;20624;-71
2022/02/12 03:06:48;;;;;;;23.90;10.85;;;-0.20;97.50;;;;;;4963778;28;20188;-73
2022/02/12 03:09:15;;;;;;;28.38;10.50;;;-0.20;97.50;;;;;;4972779;28;20193;-72
2022/02/12 03:11:40;;;;;;;22.98;9.05;;;-0.20;97.50;;;;;;4978181;28;20222;-73
2022/02/12 03:14:07;;;;;;;21.13;10.30;;;-0.20;97.40;;;;;;4979428;28;20183;-72
2022/02/12 03:16:33;;;;;;;17.00;9.40;;;-0.20;97.30;;;;;;4968292;28;20673;-74
2022/02/12 03:18:59;;;;;;;18.40;9.20;;;-0.20;97.30;;;;;;4968667;28;20237;-72
2022/02/12 03:21:25;;;;;;;19.60;9.68;;;-0.20;97.30;;;;;;4973087;28;20270;-73
2022/02/12 03:23:51;;;;;;;21.00;9.30;;;-0.20;97.20;;;;;;4974014;28;20709;-73
2022/02/12 03:26:18;;;;;;;22.50;10.98;;;-0.30;97.20;;;;;;4973790;28;20433;-70
2022/02/12 03:28:44;;;;;;;34.15;13.50;;;-0.30;97.30;;;;;;4975027;28;20191;-73
2022/02/12 03:31:10;;;;;;;33.40;16.10;;;-0.30;97.30;;;;;;4969106;28;20219;-70
2022/02/12 03:33:36;;;;;;;26.25;13.60;;;-0.30;97.30;;;;;;4966389;28;20179;-71
2022/02/12 03:36:04;;;;;;;27.20;13.65;;;-0.30;97.30;;;;;;4968979;28;20207;-71
2022/02/12 03:38:35;;;;;;;25.17;12.30;;;-0.20;97.30;;;;;;4967831;28;20184;-70
2022/02/12 03:41:06;;;;;;;17.55;10.82;;;-0.30;97.30;;;;;;4969906;28;20223;-71
2022/02/12 03:43:34;;;;;;;23.92;11.23;;;-0.30;97.20;;;;;;4971611;28;20246;-72
2022/02/12 03:46:00;;;;;;;22.63;9.70;;;-0.30;97.10;;;;;;4967398;28;20187;-72
2022/02/12 03:48:27;;;;;;;35.97;14.70;;;-0.30;97.20;;;;;;4962604;28;20698;-71
2022/02/12 03:50:54;;;;;;;39.17;17.67;;;-0.30;97.20;;;;;;4971446;28;20203;-71
2022/02/12 03:53:20;;;;;;;37.60;18.50;;;-0.30;97.20;;;;;;4960617;28;20179;-70
2022/02/12 03:55:46;;;;;;;42.33;18.08;;;-0.20;97.40;;;;;;4965667;28;20184;-71
2022/02/12 03:58:14;;;;;;;43.63;19.00;;;-0.20;97.40;;;;;;4967506;28;20647;-71
2022/02/12 04:00:41;;;;;;;46.90;20.20;;;-0.20;97.40;;;;;;4959814;28;20659;-71
2022/02/12 04:03:08;;;;;;;51.08;19.90;;;-0.20;97.40;;;;;;4961810;28;20188;-72
2022/02/12 04:05:35;;;;;;;40.92;19.00;;;-0.20;97.50;;;;;;4958378;28;20184;-72
2022/02/12 04:08:00;;;;;;;49.17;21.25;;;-0.20;97.50;;;;;;4968122;28;20184;-70
2022/02/12 04:10:27;;;;;;;45.93;20.77;;;-0.40;97.60;;;;;;4972099;28;20219;-72
2022/02/12 04:12:53;;;;;;;44.92;21.80;;;-0.40;97.70;;;;;;4966285;28;20466;-70
2022/02/12 04:15:20;;;;;;;51.65;21.95;;;-0.50;97.70;;;;;;4972414;28;20237;-71
2022/02/12 04:17:46;;;;;;;42.45;22.10;;;-0.50;97.80;;;;;;4973075;28;20269;-71
2022/02/12 04:20:14;;;;;;;47.60;22.42;;;-0.60;97.90;;;;;;4966798;28;20214;-72
2022/02/12 04:22:41;;;;;;;48.70;21.02;;;-0.50;98.20;;;;;;4972755;28;20187;-73
2022/02/12 04:25:09;;;;;;;46.25;20.02;;;-0.50;98.20;;;;;;4971799;28;20191;-71
2022/02/12 04:27:35;;;;;;;51.55;20.45;;;-0.60;98.30;;;;;;4969825;28;20184;-70
2022/02/12 04:30:02;;;;;;;43.72;18.67;;;-0.60;98.40;;;;;;4972960;28;20282;-71
2022/02/12 04:32:28;;;;;;;40.03;18.27;;;-0.60;98.50;;;;;;4972800;28;20334;-72
2022/02/12 04:34:54;;;;;;;45.60;18.30;;;-0.60;98.50;;;;;;4984752;28;20258;-71
2022/02/12 04:37:22;;;;;;;50.13;20.85;;;-0.50;98.50;;;;;;4974376;28;20263;-72
2022/02/12 04:39:48;;;;;;;47.70;18.55;;;-0.60;98.50;;;;;;4985017;28;20735;-71
2022/02/12 04:42:16;;;;;;;41.10;18.92;;;-0.60;98.50;;;;;;4993237;28;20183;-71
2022/02/12 04:44:52;;;;;;;45.35;17.65;;;-0.60;98.60;;;;;;4983854;28;20198;-72
2022/02/12 04:47:19;;;;;;;45.25;18.92;;;-0.60;98.60;;;;;;4972469;28;20179;-72
2022/02/12 04:49:46;;;;;;;49.33;18.85;;;-0.60;98.60;;;;;;4979300;28;20194;-71
2022/02/12 04:52:14;;;;;;;46.28;20.60;;;-0.60;98.60;;;;;;4966468;28;20579;-72
2022/02/12 04:54:40;;;;;;;42.22;18.73;;;-0.60;98.50;;;;;;4982644;28;20189;-70
2022/02/12 04:57:06;;;;;;;40.03;19.15;;;-0.50;98.50;;;;;;4977598;28;20192;-70
2022/02/12 04:59:33;;;;;;;53.00;20.40;;;-0.50;98.40;;;;;;4972418;28;20547;-70
2022/02/12 05:01:59;;;;;;;64.65;22.77;;;-0.50;98.50;;;;;;4984799;28;20175;-70
2022/02/12 05:04:24;;;;;;;46.90;20.17;;;-0.60;98.50;;;;;;4971954;28;20196;-71
2022/02/12 05:06:51;;;;;;;42.80;20.47;;;-0.60;98.50;;;;;;4980612;28;20565;-69
2022/02/12 05:09:18;;;;;;;43.35;19.40;;;-0.70;98.50;;;;;;4972753;28;20646;-71
2022/02/12 05:11:46;;;;;;;51.60;20.58;;;-0.60;98.60;;;;;;4974504;28;20697;-71
2022/02/12 05:14:13;;;;;;;50.58;19.75;;;-0.60;98.70;;;;;;4977130;28;20621;-70
2022/02/12 05:16:39;;;;;;;38.95;18.30;;;-0.60;98.50;;;;;;4972623;28;20263;-70
2022/02/12 05:19:04;;;;;;;49.47;19.60;;;-0.70;98.40;;;;;;4975473;28;20237;-72
2022/02/12 05:21:30;;;;;;;43.50;18.37;;;-0.70;98.40;;;;;;4973156;28;20445;-71
2022/02/12 05:23:56;;;;;;;41.47;17.63;;;-0.70;98.50;;;;;;4971456;28;20532;-72
2022/02/12 05:26:22;;;;;;;39.40;18.30;;;-0.70;98.40;;;;;;4970138;28;20520;-70
2022/02/12 05:28:48;;;;;;;42.87;20.30;;;-0.70;98.40;;;;;;4968728;28;20449;-71
2022/02/12 05:31:14;;;;;;;39.13;18.40;;;-0.70;98.30;;;;;;4976061;28;20264;-70
2022/02/12 05:33:40;;;;;;;45.97;19.02;;;-0.70;98.30;;;;;;4975569;28;20179;-70
2022/02/12 05:36:11;;;;;;;42.00;19.33;;;-0.70;98.40;;;;;;4976379;28;20189;-71
2022/02/12 05:38:41;;;;;;;44.42;18.30;;;-0.60;98.40;;;;;;4978328;28;20175;-69
2022/02/12 05:41:11;;;;;;;42.78;18.27;;;-0.60;98.40;;;;;;4973484;28;20203;-71
2022/02/12 05:43:38;;;;;;;42.80;17.75;;;-0.60;98.30;;;;;;4975086;28;20278;-69
2022/02/12 05:46:04;;;;;;;42.05;18.42;;;-0.60;98.30;;;;;;4976280;28;20612;-70
2022/02/12 05:48:31;;;;;;;43.28;17.42;;;-0.50;98.30;;;;;;4976448;28;20551;-71
2022/02/12 05:50:57;;;;;;;46.55;18.20;;;-0.50;98.20;;;;;;4974260;28;20203;-71
2022/02/12 05:53:23;;;;;;;41.55;18.90;;;-0.50;98.20;;;;;;4972894;28;20211;-71
2022/02/12 05:55:49;;;;;;;43.35;18.10;;;-0.50;98.10;;;;;;4975180;28;20614;-71
2022/02/12 05:58:15;;;;;;;55.90;20.23;;;-0.50;98.00;;;;;;4985441;28;20586;-71
2022/02/12 06:00:41;;;;;;;47.22;20.40;;;-0.70;97.90;;;;;;4974366;28;20215;-72
2022/02/12 06:03:07;;;;;;;41.20;17.67;;;-0.70;98.00;;;;;;4970646;28;20183;-70
2022/02/12 06:05:32;;;;;;;45.37;19.47;;;-0.80;98.00;;;;;;4974657;28;20720;-69
2022/02/12 06:08:04;;;;;;;46.53;18.63;;;-0.70;98.20;;;;;;4968871;28;20925;-69
2022/02/12 06:10:30;;;;;;;39.03;17.00;;;-0.70;98.30;;;;;;4970259;28;20203;-69
2022/02/12 06:12:56;;;;;;;48.33;19.13;;;-0.60;98.40;;;;;;4978238;28;20215;-69
2022/02/12 06:15:22;;;;;;;40.50;16.30;;;-0.50;98.30;;;;;;4980284;28;20563;-71
2022/02/12 06:17:49;;;;;;;41.13;17.10;;;-0.40;98.30;;;;;;4974768;28;20964;-73
2022/02/12 06:20:15;;;;;;;54.05;19.77;;;-0.40;98.30;;;;;;4975290;28;20974;-72
2022/02/12 06:22:41;;;;;;;48.80;18.30;;;-0.40;98.30;;;;;;4976734;28;20220;-71
2022/02/12 06:25:08;;;;;;;47.05;17.73;;;-0.40;98.30;;;;;;4983383;28;20191;-72
2022/02/12 06:27:33;;;;;;;47.45;18.92;;;-0.40;98.20;;;;;;4979038;28;20718;-71
2022/02/12 06:29:59;;;;;;;45.73;17.83;;;-0.30;98.10;;;;;;4975469;28;20246;-71
2022/02/12 06:32:26;;;;;;;47.30;18.70;;;-0.40;98.00;;;;;;4971968;28;20218;-73
2022/02/12 06:34:55;;;;;;;47.50;19.10;;;-0.40;97.90;;;;;;4993976;28;20426;-72
2022/02/12 06:37:21;;;;;;;44.63;18.23;;;-0.40;97.80;;;;;;4986380;28;20179;-70
2022/02/12 06:39:47;;;;;;;41.20;16.75;;;-0.40;97.80;;;;;;4975678;28;20261;-70
2022/02/12 06:42:14;;;;;;;39.55;16.73;;;-0.50;97.80;;;;;;4968947;28;20187;-71
2022/02/12 06:44:41;;;;;;;41.70;16.70;;;-0.50;97.80;;;;;;4970032;28;20203;-73
2022/02/12 06:47:07;;;;;;;39.80;16.42;;;-0.50;97.80;;;;;;4967759;28;20502;-71
2022/02/12 06:49:33;;;;;;;36.88;17.50;;;-0.40;97.80;;;;;;4969183;28;20606;-73
2022/02/12 06:51:59;;;;;;;41.08;17.20;;;-0.40;97.90;;;;;;4974437;28;20681;-71
2022/02/12 06:54:25;;;;;;;39.67;17.40;;;-0.40;97.90;;;;;;4968570;28;20262;-72
2022/02/12 06:56:51;;;;;;;51.77;19.77;;;-0.40;97.80;;;;;;4970269;28;20187;-74
2022/02/12 06:59:17;;;;;;;37.83;16.77;;;-0.40;97.70;;;;;;4967113;28;20930;-70
2022/02/12 07:01:42;;;;;;;32.30;17.20;;;-0.50;97.60;;;;;;4968044;28;20447;-70
2022/02/12 07:04:08;;;;;;;50.40;16.33;;;-0.40;97.60;;;;;;4969608;28;20218;-71
2022/02/12 07:06:34;;;;;;;34.57;15.53;;;-0.40;97.60;;;;;;4966149;28;20215;-72
2022/02/12 07:08:59;;;;;;;36.17;15.83;;;-0.40;97.40;;;;;;4969750;28;20187;-71
2022/02/12 07:11:25;;;;;;;40.83;15.67;;;-0.40;97.30;;;;;;4974996;28;20255;-73
2022/02/12 07:13:51;;;;;;;37.23;15.80;;;-0.40;97.30;;;;;;4975296;28;20187;-74
2022/02/12 07:16:17;;;;;;;34.47;14.73;;;-0.40;97.30;;;;;;4976074;28;20183;-71
2022/02/12 07:18:42;;;;;;;36.60;16.67;;;-0.30;97.30;;;;;;4973974;28;20437;-70
2022/02/12 07:21:08;;;;;;;34.30;15.70;;;-0.30;97.20;;;;;;4974758;28;20199;-70
2022/02/12 07:23:34;;;;;;;36.57;16.23;;;-0.20;97.20;;;;;;4970611;28;20270;-70
2022/02/12 07:25:59;;;;;;;44.83;18.00;;;-0.20;97.10;;;;;;4970570;28;20174;-69
2022/02/12 07:28:29;;;;;;;41.60;17.33;;;-0.20;97.10;;;;;;4974707;28;20179;-71
2022/02/12 07:30:55;;;;;;;42.67;16.17;;;-0.10;97.10;;;;;;4961675;28;20195;-72
2022/02/12 07:33:22;;;;;;;43.03;15.27;;;-0.10;97.00;;;;;;4966572;28;20628;-72
2022/02/12 07:35:51;;;;;;;37.15;15.05;;;-0.10;96.80;;;;;;4970733;28;20438;-72
2022/02/12 07:38:17;;;;;;;41.83;17.60;;;-0.10;96.70;;;;;;4970927;28;20207;-71
2022/02/12 07:40:43;;;;;;;41.97;17.02;;;-0.10;96.40;;;;;;4970840;28;20230;-71
2022/02/12 07:43:09;;;;;;;43.13;17.83;;;-0.20;96.10;;;;;;4971594;28;20203;-70
2022/02/12 07:45:35;;;;;;;30.30;15.00;;;-0.30;96.00;;;;;;4971036;28;20185;-70
2022/02/12 07:48:01;;;;;;;35.10;16.73;;;-0.30;96.00;;;;;;4971534;28;20557;-72
2022/02/12 07:50:27;;;;;;;38.40;15.83;;;-0.30;96.00;;;;;;4968815;28;20997;-70
2022/02/12 07:52:52;;;;;;;54.07;18.13;;;-0.30;96.20;;;;;;4973202;28;20214;-72
2022/02/12 07:55:19;;;;;;;40.17;15.60;;;-0.20;96.30;;;;;;4967285;28;20930;-73
2022/02/12 07:57:45;;;;;;;45.92;17.15;;;-0.10;96.50;;;;;;4967594;28;20226;-72
2022/02/12 08:00:13;;;;;;;43.17;17.45;;;0.00;96.60;;;;;;4964333;28;21024;-73
2022/02/12 08:02:39;;;;;;;43.40;16.58;;;0.10;96.70;;;;;;4971365;28;20179;-71
2022/02/12 08:05:06;;;;;;;45.10;17.15;;;0.20;96.60;;;;;;4970015;28;20627;-72
2022/02/12 08:07:34;;;;;;;38.65;16.40;;;0.30;96.50;;;;;;4969929;28;20179;-72
2022/02/12 08:12:54;;;;;;;37.65;16.20;;;0.50;96.00;;;;;;4969097;28;20210;-73
2022/02/12 08:15:20;;;;;;;38.92;16.42;;;0.60;95.80;;;;;;4965675;28;20234;-72
2022/02/12 08:17:46;;;;;;;33.20;15.47;;;0.70;95.50;;;;;;4963460;28;20183;-72
2022/02/12 08:20:13;;;;;;;37.90;15.45;;;0.70;95.30;;;;;;4964621;28;20953;-72
2022/02/12 08:22:39;;;;;;;32.42;14.38;;;0.70;95.10;;;;;;4963305;28;20246;-72
2022/02/12 08:25:05;;;;;;;38.93;16.40;;;0.80;94.80;;;;;;4964447;28;20658;-72
2022/02/12 08:27:31;;;;;;;39.58;16.10;;;0.60;94.40;;;;;;4962149;28;20192;-72
2022/02/12 08:29:57;;;;;;;32.40;15.80;;;0.60;94.20;;;;;;4960998;28;20277;-73
2022/02/12 08:32:23;;;;;;;30.73;15.17;;;0.60;94.20;;;;;;4965907;28;20509;-72
2022/02/12 08:34:50;;;;;;;38.58;17.02;;;0.50;94.40;;;;;;4966610;28;20418;-75
2022/02/12 08:37:17;;;;;;;36.65;16.35;;;0.50;94.50;;;;;;4970393;28;20218;-70
2022/02/12 08:39:43;;;;;;;35.25;15.55;;;0.50;94.60;;;;;;4965914;28;20605;-72
2022/02/12 08:42:08;;;;;;;35.43;14.50;;;0.50;94.70;;;;;;4966244;28;20218;-74
2022/02/12 08:44:35;;;;;;;37.00;14.83;;;0.50;94.70;;;;;;4966285;28;20253;-73
2022/02/12 08:47:02;;;;;;;37.20;16.80;;;0.50;94.70;;;;;;4964185;28;20194;-72
2022/02/12 08:49:29;;;;;;;32.72;15.50;;;0.50;94.80;;;;;;4969081;28;20186;-72
2022/02/12 08:51:55;;;;;;;31.92;15.90;;;0.50;94.80;;;;;;4968980;28;20353;-72
2022/02/12 08:54:21;;;;;;;32.00;14.60;;;0.40;94.80;;;;;;4966720;28;20770;-72
2022/02/12 08:56:46;;;;;;;44.57;17.93;;;0.30;94.80;;;;;;4962908;28;20557;-73
2022/02/12 08:59:13;;;;;;;37.03;15.37;;;0.30;95.00;;;;;;4960972;28;20426;-72
2022/02/12 09:01:40;;;;;;;43.50;16.38;;;0.40;95.20;;;;;;4966257;28;20279;-73
2022/02/12 09:04:10;;;;;;;43.90;16.85;;;0.40;95.30;;;;;;4964886;28;20287;-71
2022/02/12 09:06:37;;;;;;;44.45;19.00;;;0.50;95.50;;;;;;4966450;28;20315;-72
2022/02/12 09:09:10;;;;;;;41.90;16.30;;;0.40;95.50;;;;;;4969524;28;20188;-72
2022/02/12 09:11:41;;;;;;;41.50;16.10;;;0.50;95.70;;;;;;4972344;28;20211;-72
2022/02/12 09:14:07;;;;;;;43.10;17.48;;;0.40;95.60;;;;;;4970038;28;20274;-71
2022/02/12 09:16:34;;;;;;;48.33;18.17;;;0.30;95.80;;;;;;4972054;28;20239;-72
2022/02/12 09:19:00;;;;;;;47.58;17.95;;;0.30;96.20;;;;;;4966848;28;20180;-71
2022/02/12 09:21:26;;;;;;;37.03;16.92;;;0.20;96.30;;;;;;4968808;28;20284;-73
2022/02/12 09:23:51;;;;;;;36.93;16.03;;;0.30;96.50;;;;;;4970409;28;20187;-73
2022/02/12 09:26:21;;;;;;;48.10;16.60;;;0.40;96.60;;;;;;4965549;28;20462;-71
2022/02/12 09:28:47;;;;;;;47.97;18.30;;;0.50;96.60;;;;;;4963623;28;20283;-73
2022/02/12 09:31:14;;;;;;;47.53;17.20;;;0.60;96.40;;;;;;4964685;28;20199;-72
2022/02/12 09:33:40;;;;;;;41.67;16.60;;;0.70;96.30;;;;;;4964473;28;20206;-74
2022/02/12 09:36:06;;;;;;;36.37;17.03;;;0.80;96.30;;;;;;4968445;28;20187;-72
2022/02/12 09:38:32;;;;;;;42.73;17.37;;;0.90;96.20;;;;;;4962616;28;20191;-73
2022/02/12 09:40:58;;;;;;;43.72;16.63;;;1.00;95.90;;;;;;4967043;28;20206;-73
2022/02/12 09:43:27;;;;;;;35.75;14.70;;;1.10;95.70;;;;;;4968295;28;20286;-71
2022/02/12 09:46:17;;;;;;;44.58;16.63;;;1.30;95.20;;;;;;4973506;28;20226;-72
2022/02/12 09:48:45;;;;;;;35.72;16.58;;;1.40;94.90;;;;;;4959247;28;20239;-74
2022/02/12 09:51:13;;;;;;;31.48;14.93;;;1.50;94.90;;;;;;4968225;28;20289;-72
2022/02/12 09:53:39;;;;;;;36.70;15.15;;;1.80;94.90;;;;;;4967062;28;20615;-73
2022/02/12 09:56:05;;;;;;;45.35;15.45;;;2.00;94.40;;;;;;4972303;28;20226;-72
2022/02/12 09:58:31;;;;;;;34.90;15.18;;;2.10;93.70;;;;;;4967798;28;20707;-72
2022/02/12 10:00:57;;;;;;;37.57;14.50;;;2.20;93.40;;;;;;4967067;28;20207;-73
2022/02/12 10:03:23;;;;;;;33.28;15.30;;;2.40;92.70;;;;;;4969750;28;20422;-73
2022/02/12 10:05:51;;;;;;;32.43;14.20;;;2.50;92.20;;;;;;4972297;28;20698;-75
2022/02/12 10:08:17;;;;;;;26.48;12.48;;;2.60;91.50;;;;;;4978787;28;20183;-72
2022/02/12 10:10:48;;;;;;;25.65;12.65;;;2.80;90.60;;;;;;4984056;28;20234;-73
2022/02/12 10:13:22;;;;;;;23.00;11.17;;;2.90;89.70;;;;;;4991710;28;20298;-72
2022/02/12 10:15:52;;;;;;;22.23;9.13;;;3.10;89.50;;;;;;4987992;28;20496;-74
2022/02/12 10:18:20;;;;;;;28.63;9.57;;;3.30;87.80;;;;;;4985870;28;20438;-72
2022/02/12 10:20:46;;;;;;;21.93;10.50;;;3.50;86.50;;;;;;4977515;28;20505;-73
2022/02/12 10:23:17;;;;;;;16.03;8.90;;;3.60;85.60;;;;;;4974764;28;20434;-72
2022/02/12 10:25:48;;;;;;;21.83;8.70;;;3.80;83.10;;;;;;4972784;28;20953;-71
2022/02/12 10:28:17;;;;;;;14.03;6.87;;;3.90;81.50;;;;;;4974222;28;20522;-74
2022/02/12 10:30:44;;;;;;;18.67;7.60;;;4.00;80.00;;;;;;4962396;28;20467;-73
2022/02/12 10:33:11;;;;;;;19.70;8.00;;;4.20;78.00;;;;;;4967527;28;20553;-73
2022/02/12 10:35:38;;;;;;;18.97;7.77;;;4.20;76.70;;;;;;4968003;28;20420;-72
2022/02/12 10:38:10;;;;;;;17.50;7.03;;;4.20;75.70;;;;;;4966814;28;20430;-73
2022/02/12 10:40:37;;;;;;;20.83;8.40;;;4.30;74.90;;;;;;4965413;28;20439;-73
2022/02/12 10:43:04;;;;;;;18.57;7.80;;;4.50;74.90;;;;;;4973707;28;20439;-73
2022/02/12 10:45:31;;;;;;;18.60;7.10;;;4.70;74.30;;;;;;4963089;28;20420;-73
2022/02/12 10:47:58;;;;;;;15.77;7.50;;;5.00;73.20;;;;;;4972194;28;20427;-72
2022/02/12 10:50:26;;;;;;;20.00;8.60;;;5.30;71.80;;;;;;4971085;28;20451;-74
2022/02/12 10:52:56;;;;;;;15.10;7.93;;;5.50;71.10;;;;;;4970523;28;20474;-72
2022/02/12 10:55:30;;;;;;;13.93;7.30;;;5.90;70.70;;;;;;4971789;28;20415;-73
2022/02/12 10:58:01;;;;;;;15.60;7.27;;;6.30;70.40;;;;;;4967151;28;20415;-73
2022/02/12 11:00:29;;;;;;;13.63;7.03;;;6.90;68.90;;;;;;4966984;28;20438;-73
2022/02/12 11:02:56;;;;;;;15.97;7.80;;;7.10;66.90;;;;;;4962068;28;20424;-71
2022/02/12 11:05:23;;;;;;;15.37;7.20;;;7.60;67.20;;;;;;4964706;28;20470;-73
2022/02/12 11:07:50;;;;;;;13.40;6.50;;;8.10;63.70;;;;;;4962759;28;20438;-72
2022/02/12 11:10:16;;;;;;;17.60;6.83;;;8.30;61.90;;;;;;4963064;28;20492;-73
2022/02/12 11:12:42;;;;;;;18.33;8.17;;;8.60;61.00;;;;;;4970673;28;20989;-73
2022/02/12 11:15:10;;;;;;;12.73;6.47;;;8.90;60.60;;;;;;4971641;28;20419;-73
2022/02/12 11:17:37;;;;;;;10.80;6.10;;;8.80;59.30;;;;;;4968684;28;20427;-73
2022/02/12 11:20:07;;;;;;;14.07;6.87;;;8.50;59.50;;;;;;4967646;28;20454;-73
2022/02/12 11:22:33;;;;;;;12.30;6.63;;;8.70;59.70;;;;;;4969389;28;20466;-74
2022/02/12 11:24:59;;;;;;;13.43;5.77;;;8.90;57.30;;;;;;4966730;28;20502;-72
2022/02/12 11:27:29;;;;;;;9.63;5.57;;;9.00;56.50;;;;;;4967115;28;20184;-73
2022/02/12 11:30:14;;;;;;;11.77;6.73;;;8.90;56.00;;;;;;4964308;28;20598;-73
2022/02/12 11:32:44;;;;;;;10.53;5.97;;;8.60;56.50;;;;;;4964352;28;20475;-73
2022/02/12 11:35:09;;;;;;;10.23;6.43;;;8.80;57.00;;;;;;4970011;28;20890;-74
2022/02/12 11:37:40;;;;;;;14.93;5.70;;;8.70;56.10;;;;;;4962707;28;20423;-73
2022/02/12 11:40:13;;;;;;;13.83;5.80;;;8.70;56.20;;;;;;4968301;28;20200;-74
2022/02/12 11:42:47;;;;;;;14.33;5.47;;;8.80;55.40;;;;;;4960902;28;20514;-73
2022/02/12 11:45:23;;;;;;;13.23;5.70;;;8.90;55.00;;;;;;4965287;28;20434;-74
2022/02/12 11:48:25;;;;;;;12.63;5.27;;;8.90;54.00;;;;;;4970712;28;20781;-73
2022/02/12 11:51:03;;;;;;;9.10;5.27;;;8.80;53.80;;;;;;4966305;28;20536;-73
2022/02/12 11:53:46;;;;;;;12.73;5.10;;;8.70;53.80;;;;;;4963874;28;20465;-73
2022/02/12 11:56:18;;;;;;;8.80;4.77;;;8.60;54.20;;;;;;4961889;28;20934;-72
2022/02/12 11:58:46;;;;;;;9.23;5.57;;;8.70;54.00;;;;;;4963516;28;20479;-73
2022/02/12 12:01:21;;;;;;;10.13;5.73;;;8.90;54.40;;;;;;4959771;28;20529;-72
2022/02/12 12:04:05;;;;;;;8.23;4.97;;;9.10;53.80;;;;;;4968037;28;20849;-71
2022/02/12 12:06:32;;;;;;;9.17;5.00;;;9.40;52.50;;;;;;4957289;28;20420;-73
2022/02/12 12:09:13;;;;;;;14.30;5.70;;;9.00;52.10;;;;;;4965167;28;20415;-72
2022/02/12 12:11:41;;;;;;;9.43;5.60;;;8.40;54.00;;;;;;4968967;28;21039;-72
2022/02/12 12:14:21;;;;;;;7.37;5.07;;;8.20;54.80;;;;;;4972223;28;20834;-72
2022/02/12 12:16:55;;;;;;;11.80;4.57;;;8.20;55.00;;;;;;4970934;28;20427;-73
2022/02/12 12:19:37;;;;;;;10.37;5.00;;;8.40;54.40;;;;;;4964405;28;20898;-74
2022/02/12 12:22:04;;;;;;;14.17;4.80;;;8.70;54.40;;;;;;4956805;28;20422;-73
2022/02/12 12:24:31;;;;;;;10.03;5.40;;;8.90;52.90;;;;;;4961746;28;20434;-72
2022/02/12 12:26:57;;;;;;;9.30;4.77;;;8.70;53.30;;;;;;4968644;28;20438;-72
2022/02/12 12:32:11;;;;;;;7.13;5.00;;;8.90;51.80;;;;;;4969933;28;20574;-72
2022/02/12 12:34:52;;;;;;;7.30;4.23;;;8.80;51.80;;;;;;4970925;28;20427;-73
2022/02/12 12:37:26;;;;;;;6.67;3.83;;;8.80;51.80;;;;;;4967213;28;20412;-73
2022/02/12 12:39:52;;;;;;;5.73;4.10;;;8.80;51.60;;;;;;4968608;28;20818;-72
2022/02/12 12:42:20;;;;;;;6.90;3.50;;;9.00;51.60;;;;;;4960258;28;20431;-72
2022/02/12 12:45:11;;;;;;;5.60;3.20;;;9.10;50.70;;;;;;4966207;28;20457;-73
2022/02/12 12:47:47;;;;;;;7.30;3.33;;;9.30;49.80;;;;;;4968226;28;20493;-72